sensor_id;sensor_type;location;lat;lon;timestamp;pressure;altitude;pressure_sealevel;temperature;humidity
68873;BME280;55907;50.806;12.882;2023-08-07T00:01:55;963.2;;;14.5;99.2
68873;BME280;55907;50.806;12.882;2023-08-07T00:04:56;963.2;;;14.4;100.0
68873;BME280;55907;50.806;12.882;2023-08-07T00:07:58;963.2;;;14.4;100.0
68873;BME280;55907;50.806;12.882;2023-08-07T00:11:07;963.2;;;14.4;100.0
68873;BME280;55907;50.806;12.882;2023-08-07T00:14:01;963.2;;;14.4;99.7
68873;BME280;55907;50.806;12.882;2023-08-07T00:17:02;963.2;;;14.4;100.0
68873;BME280;55907;50.806;12.882;2023-08-07T00:20:05;963.2;;;14.4;100.0
68873;BME280;55907;50.806;12.882;2023-08-07T00:23:05;963.2;;;14.4;100.0
68873;BME280;55907;50.806;12.882;2023-08-07T00:26:06;963.1;;;14.4;100.0
68873;BME280;55907;50.806;12.882;2023-08-07T00:29:08;963.1;;;14.4;100.0
68873;BME280;55907;50.806;12.882;2023-08-07T00:32:09;963.1;;;14.4;100.0
68873;BME280;55907;50.806;12.882;2023-08-07T00:35:11;963.1;;;14.4;100.0
68873;BME280;55907;50.806;12.882;2023-08-07T00:38:12;963.1;;;14.4;100.0
68873;BME280;55907;50.806;12.882;2023-08-07T00:41:16;963.1;;;14.3;100.0
68873;BME280;55907;50.806;12.882;2023-08-07T00:44:16;963.2;;;14.4;100.0
68873;BME280;55907;50.806;12.882;2023-08-07T00:47:17;963.2;;;14.4;100.0
68873;BME280;55907;50.806;12.882;2023-08-07T00:50:18;963.2;;;14.4;100.0
68873;BME280;55907;50.806;12.882;2023-08-07T00:53:20;963.2;;;14.4;100.0
68873;BME280;55907;50.806;12.882;2023-08-07T00:56:22;963.2;;;14.5;100.0
68873;BME280;55907;50.806;12.882;2023-08-07T00:59:23;963.2;;;14.5;99.5
68873;BME280;55907;50.806;12.882;2023-08-07T01:02:24;963.1;;;14.4;100.0
68873;BME280;55907;50.806;12.882;2023-08-07T01:05:26;963.2;;;14.4;100.0
68873;BME280;55907;50.806;12.882;2023-08-07T01:08:27;963.2;;;14.4;100.0
68873;BME280;55907;50.806;12.882;2023-08-07T01:11:34;963.2;;;14.5;100.0
68873;BME280;55907;50.806;12.882;2023-08-07T01:14:36;963.2;;;14.5;100.0
68873;BME280;55907;50.806;12.882;2023-08-07T01:17:32;963.2;;;14.5;99.8
68873;BME280;55907;50.806;12.882;2023-08-07T01:20:33;963.2;;;14.5;99.8
68873;BME280;55907;50.806;12.882;2023-08-07T01:23:34;963.2;;;14.5;99.6
68873;BME280;55907;50.806;12.882;2023-08-07T01:26:37;963.2;;;14.6;99.0
68873;BME280;55907;50.806;12.882;2023-08-07T01:29:43;963.1;;;14.6;99.2
68873;BME280;55907;50.806;12.882;2023-08-07T01:32:43;963.2;;;14.5;99.3
68873;BME280;55907;50.806;12.882;2023-08-07T01:35:42;963.2;;;14.5;98.4
68873;BME280;55907;50.806;12.882;2023-08-07T01:38:42;963.2;;;14.5;98.7
68873;BME280;55907;50.806;12.882;2023-08-07T01:41:43;963.2;;;14.5;98.3
68873;BME280;55907;50.806;12.882;2023-08-07T01:44:45;963.2;;;14.5;98.6
68873;BME280;55907;50.806;12.882;2023-08-07T01:47:46;963.2;;;14.5;97.8
68873;BME280;55907;50.806;12.882;2023-08-07T01:50:48;963.3;;;14.5;97.5
68873;BME280;55907;50.806;12.882;2023-08-07T01:53:49;963.3;;;14.4;97.9
68873;BME280;55907;50.806;12.882;2023-08-07T01:56:51;963.3;;;14.4;98.0
68873;BME280;55907;50.806;12.882;2023-08-07T01:59:52;963.3;;;14.4;97.8
68873;BME280;55907;50.806;12.882;2023-08-07T02:02:53;963.3;;;14.4;99.0
68873;BME280;55907;50.806;12.882;2023-08-07T02:05:55;963.3;;;14.4;98.6
68873;BME280;55907;50.806;12.882;2023-08-07T02:08:56;963.3;;;14.4;98.7
68873;BME280;55907;50.806;12.882;2023-08-07T02:11:58;963.3;;;14.4;98.7
68873;BME280;55907;50.806;12.882;2023-08-07T02:15:00;963.3;;;14.4;98.1
68873;BME280;55907;50.806;12.882;2023-08-07T02:18:01;963.2;;;14.4;98.4
68873;BME280;55907;50.806;12.882;2023-08-07T02:21:02;963.2;;;14.3;98.6
68873;BME280;55907;50.806;12.882;2023-08-07T02:24:04;963.2;;;14.3;98.5
68873;BME280;55907;50.806;12.882;2023-08-07T02:27:05;963.3;;;14.3;99.1
68873;BME280;55907;50.806;12.882;2023-08-07T02:30:07;963.4;;;14.3;98.4
68873;BME280;55907;50.806;12.882;2023-08-07T02:33:08;963.4;;;14.4;98.8
68873;BME280;55907;50.806;12.882;2023-08-07T02:36:10;963.4;;;14.4;99.0
68873;BME280;55907;50.806;12.882;2023-08-07T02:39:13;963.4;;;14.3;98.3
68873;BME280;55907;50.806;12.882;2023-08-07T02:42:12;963.4;;;14.2;98.5
68873;BME280;55907;50.806;12.882;2023-08-07T02:45:14;963.5;;;14.2;98.6
68873;BME280;55907;50.806;12.882;2023-08-07T02:48:15;963.5;;;14.2;98.1
68873;BME280;55907;50.806;12.882;2023-08-07T02:51:17;963.6;;;14.2;98.8
68873;BME280;55907;50.806;12.882;2023-08-07T02:54:18;963.6;;;14.2;98.4
68873;BME280;55907;50.806;12.882;2023-08-07T02:57:20;963.6;;;14.2;98.8
68873;BME280;55907;50.806;12.882;2023-08-07T03:00:21;963.6;;;14.2;98.5
68873;BME280;55907;50.806;12.882;2023-08-07T03:03:23;963.6;;;14.2;99.3
68873;BME280;55907;50.806;12.882;2023-08-07T03:06:24;963.7;;;14.2;99.0
68873;BME280;55907;50.806;12.882;2023-08-07T03:09:26;963.6;;;14.2;99.3
68873;BME280;55907;50.806;12.882;2023-08-07T03:12:27;963.7;;;14.1;99.3
68873;BME280;55907;50.806;12.882;2023-08-07T03:15:28;963.7;;;14.1;99.2
68873;BME280;55907;50.806;12.882;2023-08-07T03:18:30;963.7;;;14.1;99.9
68873;BME280;55907;50.806;12.882;2023-08-07T03:21:31;963.7;;;14.2;99.6
68873;BME280;55907;50.806;12.882;2023-08-07T03:24:33;963.8;;;14.1;99.7
68873;BME280;55907;50.806;12.882;2023-08-07T03:27:34;963.8;;;14.1;99.0
68873;BME280;55907;50.806;12.882;2023-08-07T03:30:36;963.9;;;14.1;99.7
68873;BME280;55907;50.806;12.882;2023-08-07T03:33:37;963.9;;;14.1;99.7
68873;BME280;55907;50.806;12.882;2023-08-07T03:36:39;964.0;;;14.1;99.6
68873;BME280;55907;50.806;12.882;2023-08-07T03:39:40;964.0;;;14.2;99.2
68873;BME280;55907;50.806;12.882;2023-08-07T03:42:42;964.0;;;14.2;99.1
68873;BME280;55907;50.806;12.882;2023-08-07T03:45:43;964.1;;;14.2;99.5
68873;BME280;55907;50.806;12.882;2023-08-07T03:48:45;964.1;;;14.2;99.0
68873;BME280;55907;50.806;12.882;2023-08-07T03:51:46;964.1;;;14.2;98.3
68873;BME280;55907;50.806;12.882;2023-08-07T03:54:48;964.1;;;14.2;97.7
68873;BME280;55907;50.806;12.882;2023-08-07T03:57:49;964.2;;;14.2;98.1
68873;BME280;55907;50.806;12.882;2023-08-07T04:00:51;964.2;;;14.2;97.3
68873;BME280;55907;50.806;12.882;2023-08-07T04:03:52;964.2;;;14.3;97.7
68873;BME280;55907;50.806;12.882;2023-08-07T04:06:53;964.3;;;14.3;97.6
68873;BME280;55907;50.806;12.882;2023-08-07T04:09:55;964.3;;;14.3;97.2
68873;BME280;55907;50.806;12.882;2023-08-07T04:12:56;964.3;;;14.3;97.2
68873;BME280;55907;50.806;12.882;2023-08-07T04:15:58;964.3;;;14.3;97.2
68873;BME280;55907;50.806;12.882;2023-08-07T04:18:59;964.4;;;14.3;97.2
68873;BME280;55907;50.806;12.882;2023-08-07T04:22:01;964.4;;;14.4;97.2
68873;BME280;55907;50.806;12.882;2023-08-07T04:25:02;964.5;;;14.3;96.2
68873;BME280;55907;50.806;12.882;2023-08-07T04:28:04;964.4;;;14.3;96.4
68873;BME280;55907;50.806;12.882;2023-08-07T04:31:05;964.5;;;14.3;96.0
68873;BME280;55907;50.806;12.882;2023-08-07T04:34:07;964.6;;;14.4;96.7
68873;BME280;55907;50.806;12.882;2023-08-07T04:37:08;964.5;;;14.4;96.6
68873;BME280;55907;50.806;12.882;2023-08-07T04:40:10;964.6;;;14.3;96.1
68873;BME280;55907;50.806;12.882;2023-08-07T04:43:11;964.6;;;14.4;96.0
68873;BME280;55907;50.806;12.882;2023-08-07T04:46:12;964.6;;;14.3;96.1
68873;BME280;55907;50.806;12.882;2023-08-07T04:49:14;964.7;;;14.3;95.8
68873;BME280;55907;50.806;12.882;2023-08-07T04:52:15;964.7;;;14.3;96.1
68873;BME280;55907;50.806;12.882;2023-08-07T04:55:17;964.7;;;14.3;95.7
68873;BME280;55907;50.806;12.882;2023-08-07T04:58:18;964.8;;;14.2;95.5
68873;BME280;55907;50.806;12.882;2023-08-07T05:01:20;964.8;;;14.3;95.9
68873;BME280;55907;50.806;12.882;2023-08-07T05:04:21;964.9;;;14.3;95.5
68873;BME280;55907;50.806;12.882;2023-08-07T05:07:22;964.8;;;14.2;95.2
68873;BME280;55907;50.806;12.882;2023-08-07T05:10:24;964.7;;;14.2;94.7
68873;BME280;55907;50.806;12.882;2023-08-07T05:13:26;964.7;;;14.2;94.5
68873;BME280;55907;50.806;12.882;2023-08-07T05:16:27;964.8;;;14.2;94.1
68873;BME280;55907;50.806;12.882;2023-08-07T05:19:28;964.8;;;14.2;93.9
68873;BME280;55907;50.806;12.882;2023-08-07T05:22:30;964.9;;;14.2;94.5
68873;BME280;55907;50.806;12.882;2023-08-07T05:25:31;964.9;;;14.3;93.3
68873;BME280;55907;50.806;12.882;2023-08-07T05:28:33;964.9;;;14.3;93.2
68873;BME280;55907;50.806;12.882;2023-08-07T05:31:34;965.0;;;14.3;93.2
68873;BME280;55907;50.806;12.882;2023-08-07T05:34:36;965.0;;;14.4;92.4
68873;BME280;55907;50.806;12.882;2023-08-07T05:37:37;964.9;;;14.4;91.4
68873;BME280;55907;50.806;12.882;2023-08-07T05:40:38;965.0;;;14.4;91.4
68873;BME280;55907;50.806;12.882;2023-08-07T05:43:40;965.0;;;14.4;92.2
68873;BME280;55907;50.806;12.882;2023-08-07T05:46:41;965.1;;;14.4;91.7
68873;BME280;55907;50.806;12.882;2023-08-07T05:49:43;965.1;;;14.5;90.7
68873;BME280;55907;50.806;12.882;2023-08-07T05:52:44;965.1;;;14.4;91.3
68873;BME280;55907;50.806;12.882;2023-08-07T05:55:46;965.3;;;14.4;91.5
68873;BME280;55907;50.806;12.882;2023-08-07T05:58:47;965.3;;;14.5;90.4
68873;BME280;55907;50.806;12.882;2023-08-07T06:01:49;965.3;;;14.6;90.2
68873;BME280;55907;50.806;12.882;2023-08-07T06:04:50;965.3;;;14.6;89.1
68873;BME280;55907;50.806;12.882;2023-08-07T06:07:51;965.4;;;14.6;89.5
68873;BME280;55907;50.806;12.882;2023-08-07T06:10:53;965.4;;;14.8;89.3
68873;BME280;55907;50.806;12.882;2023-08-07T06:13:54;965.5;;;14.8;89.4
68873;BME280;55907;50.806;12.882;2023-08-07T06:16:56;965.5;;;14.7;89.4
68873;BME280;55907;50.806;12.882;2023-08-07T06:19:57;965.5;;;14.7;89.3
68873;BME280;55907;50.806;12.882;2023-08-07T06:22:59;965.6;;;14.6;89.3
68873;BME280;55907;50.806;12.882;2023-08-07T06:26:00;965.7;;;14.6;89.9
68873;BME280;55907;50.806;12.882;2023-08-07T06:29:02;965.7;;;14.6;89.9
68873;BME280;55907;50.806;12.882;2023-08-07T06:32:03;965.7;;;14.6;89.9
68873;BME280;55907;50.806;12.882;2023-08-07T06:35:05;965.8;;;14.6;89.8
68873;BME280;55907;50.806;12.882;2023-08-07T06:38:06;965.8;;;14.6;89.7
68873;BME280;55907;50.806;12.882;2023-08-07T06:41:07;965.8;;;14.6;89.0
68873;BME280;55907;50.806;12.882;2023-08-07T06:44:09;965.9;;;14.6;89.4
68873;BME280;55907;50.806;12.882;2023-08-07T06:47:10;965.9;;;14.6;89.2
68873;BME280;55907;50.806;12.882;2023-08-07T06:50:13;965.9;;;14.6;89.2
68873;BME280;55907;50.806;12.882;2023-08-07T06:53:13;965.9;;;14.6;89.6
68873;BME280;55907;50.806;12.882;2023-08-07T06:56:15;965.9;;;14.6;89.2
68873;BME280;55907;50.806;12.882;2023-08-07T06:59:16;966.0;;;14.7;89.2
68873;BME280;55907;50.806;12.882;2023-08-07T07:02:18;966.0;;;14.6;88.6
68873;BME280;55907;50.806;12.882;2023-08-07T07:05:19;966.1;;;14.6;89.1
68873;BME280;55907;50.806;12.882;2023-08-07T07:08:21;966.1;;;14.7;89.3
68873;BME280;55907;50.806;12.882;2023-08-07T07:11:22;966.2;;;14.6;88.8
68873;BME280;55907;50.806;12.882;2023-08-07T07:14:23;966.2;;;14.6;89.1
68873;BME280;55907;50.806;12.882;2023-08-07T07:17:25;966.2;;;14.8;88.8
68873;BME280;55907;50.806;12.882;2023-08-07T07:20:27;966.2;;;14.8;88.0
68873;BME280;55907;50.806;12.882;2023-08-07T07:23:28;966.3;;;14.9;87.8
68873;BME280;55907;50.806;12.882;2023-08-07T07:26:29;966.3;;;15.0;87.5
68873;BME280;55907;50.806;12.882;2023-08-07T07:29:31;966.4;;;15.1;87.0
68873;BME280;55907;50.806;12.882;2023-08-07T07:32:32;966.4;;;15.1;86.5
68873;BME280;55907;50.806;12.882;2023-08-07T07:35:37;966.3;;;15.0;86.4
68873;BME280;55907;50.806;12.882;2023-08-07T07:38:35;966.5;;;15.0;86.8
68873;BME280;55907;50.806;12.882;2023-08-07T07:41:37;966.4;;;15.1;86.4
68873;BME280;55907;50.806;12.882;2023-08-07T07:44:38;966.5;;;15.1;86.2
68873;BME280;55907;50.806;12.882;2023-08-07T07:47:39;966.5;;;15.2;85.7
68873;BME280;55907;50.806;12.882;2023-08-07T07:50:41;966.5;;;15.3;85.2
68873;BME280;55907;50.806;12.882;2023-08-07T07:53:42;966.6;;;15.4;84.1
68873;BME280;55907;50.806;12.882;2023-08-07T07:56:44;966.6;;;15.5;83.9
68873;BME280;55907;50.806;12.882;2023-08-07T07:59:45;966.6;;;15.6;83.5
68873;BME280;55907;50.806;12.882;2023-08-07T08:02:47;966.7;;;15.6;84.1
68873;BME280;55907;50.806;12.882;2023-08-07T08:05:49;966.7;;;15.6;83.5
68873;BME280;55907;50.806;12.882;2023-08-07T08:08:50;966.8;;;15.6;83.7
68873;BME280;55907;50.806;12.882;2023-08-07T08:11:51;966.8;;;15.7;83.4
68873;BME280;55907;50.806;12.882;2023-08-07T08:17:54;966.9;;;15.7;83.1
68873;BME280;55907;50.806;12.882;2023-08-07T08:20:55;966.8;;;15.6;82.8
68873;BME280;55907;50.806;12.882;2023-08-07T08:23:57;966.9;;;15.8;83.6
68873;BME280;55907;50.806;12.882;2023-08-07T08:26:58;966.9;;;15.9;83.0
68873;BME280;55907;50.806;12.882;2023-08-07T08:30:00;966.9;;;15.9;82.3
68873;BME280;55907;50.806;12.882;2023-08-07T08:33:01;966.9;;;15.8;82.2
68873;BME280;55907;50.806;12.882;2023-08-07T08:36:03;967.0;;;15.8;82.3
68873;BME280;55907;50.806;12.882;2023-08-07T08:39:04;967.0;;;15.7;82.7
68873;BME280;55907;50.806;12.882;2023-08-07T08:42:06;967.1;;;15.5;83.5
68873;BME280;55907;50.806;12.882;2023-08-07T08:45:08;967.1;;;15.3;84.1
68873;BME280;55907;50.806;12.882;2023-08-07T08:48:11;967.1;;;15.2;84.7
68873;BME280;55907;50.806;12.882;2023-08-07T08:51:11;967.1;;;15.1;84.8
68873;BME280;55907;50.806;12.882;2023-08-07T08:54:12;967.1;;;15.0;86.1
68873;BME280;55907;50.806;12.882;2023-08-07T08:57:13;967.2;;;15.0;86.6
68873;BME280;55907;50.806;12.882;2023-08-07T09:00:14;967.2;;;15.0;88.4
68873;BME280;55907;50.806;12.882;2023-08-07T09:03:17;967.2;;;14.8;88.9
68873;BME280;55907;50.806;12.882;2023-08-07T09:06:17;967.3;;;14.7;90.1
68873;BME280;55907;50.806;12.882;2023-08-07T09:09:20;967.3;;;14.6;91.3
68873;BME280;55907;50.806;12.882;2023-08-07T09:12:21;967.3;;;14.6;92.5
68873;BME280;55907;50.806;12.882;2023-08-07T09:15:23;967.3;;;14.6;93.2
68873;BME280;55907;50.806;12.882;2023-08-07T09:18:23;967.3;;;14.6;92.4
68873;BME280;55907;50.806;12.882;2023-08-07T09:21:25;967.3;;;14.7;91.4
68873;BME280;55907;50.806;12.882;2023-08-07T09:24:26;967.4;;;15.0;90.3
68873;BME280;55907;50.806;12.882;2023-08-07T09:27:27;967.4;;;15.2;89.2
68873;BME280;55907;50.806;12.882;2023-08-07T09:30:29;967.5;;;15.5;87.6
68873;BME280;55907;50.806;12.882;2023-08-07T09:33:30;967.5;;;15.7;86.0
68873;BME280;55907;50.806;12.882;2023-08-07T09:36:34;967.5;;;16.0;86.0
68873;BME280;55907;50.806;12.882;2023-08-07T09:39:33;967.5;;;16.1;84.2
68873;BME280;55907;50.806;12.882;2023-08-07T09:42:35;967.5;;;16.2;83.5
68873;BME280;55907;50.806;12.882;2023-08-07T09:45:39;967.6;;;16.3;82.4
68873;BME280;55907;50.806;12.882;2023-08-07T09:48:40;967.6;;;16.4;81.4
68873;BME280;55907;50.806;12.882;2023-08-07T09:51:42;967.6;;;16.3;81.3
68873;BME280;55907;50.806;12.882;2023-08-07T09:54:40;967.7;;;16.4;81.9
68873;BME280;55907;50.806;12.882;2023-08-07T09:57:42;967.6;;;16.1;81.6
68873;BME280;55907;50.806;12.882;2023-08-07T10:00:46;967.6;;;16.0;82.6
68873;BME280;55907;50.806;12.882;2023-08-07T10:03:45;967.7;;;16.0;82.5
68873;BME280;55907;50.806;12.882;2023-08-07T10:06:46;967.7;;;16.1;82.4
68873;BME280;55907;50.806;12.882;2023-08-07T10:09:47;967.8;;;16.1;82.7
68873;BME280;55907;50.806;12.882;2023-08-07T10:12:49;967.7;;;16.2;82.2
68873;BME280;55907;50.806;12.882;2023-08-07T10:15:50;967.7;;;16.4;81.4
68873;BME280;55907;50.806;12.882;2023-08-07T10:18:52;967.7;;;16.9;79.9
68873;BME280;55907;50.806;12.882;2023-08-07T10:21:53;967.7;;;17.6;78.3
68873;BME280;55907;50.806;12.882;2023-08-07T10:24:57;967.7;;;18.2;75.8
68873;BME280;55907;50.806;12.882;2023-08-07T10:27:57;967.7;;;18.7;73.9
68873;BME280;55907;50.806;12.882;2023-08-07T10:30:58;967.7;;;18.8;72.5
68873;BME280;55907;50.806;12.882;2023-08-07T10:33:59;967.7;;;18.6;71.3
68873;BME280;55907;50.806;12.882;2023-08-07T10:37:00;967.6;;;18.4;71.6
68873;BME280;55907;50.806;12.882;2023-08-07T10:40:02;967.7;;;18.1;73.2
68873;BME280;55907;50.806;12.882;2023-08-07T10:43:13;967.6;;;17.7;74.6
68873;BME280;55907;50.806;12.882;2023-08-07T10:46:05;967.7;;;17.4;75.6
68873;BME280;55907;50.806;12.882;2023-08-07T10:49:07;967.6;;;17.0;79.0
68873;BME280;55907;50.806;12.882;2023-08-07T10:52:08;967.7;;;16.6;81.6
68873;BME280;55907;50.806;12.882;2023-08-07T10:55:13;967.7;;;16.5;82.2
68873;BME280;55907;50.806;12.882;2023-08-07T10:58:21;967.8;;;16.6;83.3
68873;BME280;55907;50.806;12.882;2023-08-07T11:01:15;967.7;;;16.7;83.6
68873;BME280;55907;50.806;12.882;2023-08-07T11:04:14;967.7;;;16.9;84.1
68873;BME280;55907;50.806;12.882;2023-08-07T11:07:22;967.7;;;17.0;81.6
68873;BME280;55907;50.806;12.882;2023-08-07T11:10:16;967.7;;;17.1;81.7
68873;BME280;55907;50.806;12.882;2023-08-07T11:13:17;967.8;;;17.1;83.2
68873;BME280;55907;50.806;12.882;2023-08-07T11:16:19;967.7;;;16.9;82.3
68873;BME280;55907;50.806;12.882;2023-08-07T11:19:22;967.8;;;16.8;83.3
68873;BME280;55907;50.806;12.882;2023-08-07T11:22:22;967.8;;;16.7;83.7
68873;BME280;55907;50.806;12.882;2023-08-07T11:25:23;967.7;;;16.9;83.7
68873;BME280;55907;50.806;12.882;2023-08-07T11:28:24;967.7;;;17.3;81.8
68873;BME280;55907;50.806;12.882;2023-08-07T11:31:26;967.7;;;18.0;78.7
68873;BME280;55907;50.806;12.882;2023-08-07T11:34:27;967.7;;;18.8;75.5
68873;BME280;55907;50.806;12.882;2023-08-07T11:37:29;967.7;;;19.3;72.4
68873;BME280;55907;50.806;12.882;2023-08-07T11:40:30;967.7;;;19.5;71.9
68873;BME280;55907;50.806;12.882;2023-08-07T11:43:33;967.6;;;19.4;70.2
68873;BME280;55907;50.806;12.882;2023-08-07T11:46:33;967.6;;;19.4;68.7
68873;BME280;55907;50.806;12.882;2023-08-07T11:49:34;967.6;;;19.5;68.2
68873;BME280;55907;50.806;12.882;2023-08-07T11:52:36;967.6;;;19.7;67.9
68873;BME280;55907;50.806;12.882;2023-08-07T11:55:45;967.5;;;20.1;67.1
68873;BME280;55907;50.806;12.882;2023-08-07T11:58:40;967.6;;;20.1;65.4
68873;BME280;55907;50.806;12.882;2023-08-07T12:01:40;967.5;;;19.7;64.4
68873;BME280;55907;50.806;12.882;2023-08-07T12:04:41;967.7;;;19.4;65.1
68873;BME280;55907;50.806;12.882;2023-08-07T12:07:43;967.9;;;18.5;75.3
68873;BME280;55907;50.806;12.882;2023-08-07T12:10:48;968.0;;;17.5;78.3
68873;BME280;55907;50.806;12.882;2023-08-07T12:13:46;967.8;;;17.9;79.9
68873;BME280;55907;50.806;12.882;2023-08-07T12:16:47;968.0;;;18.4;78.5
68873;BME280;55907;50.806;12.882;2023-08-07T12:19:50;968.0;;;18.9;77.8
68873;BME280;55907;50.806;12.882;2023-08-07T12:22:50;967.9;;;19.0;74.0
68873;BME280;55907;50.806;12.882;2023-08-07T12:25:51;967.9;;;19.1;74.1
68873;BME280;55907;50.806;12.882;2023-08-07T12:28:53;967.9;;;19.1;73.9
68873;BME280;55907;50.806;12.882;2023-08-07T12:31:54;967.9;;;19.1;70.9
68873;BME280;55907;50.806;12.882;2023-08-07T12:34:55;967.9;;;19.1;71.9
68873;BME280;55907;50.806;12.882;2023-08-07T12:37:57;968.0;;;19.0;70.9
68873;BME280;55907;50.806;12.882;2023-08-07T12:40:58;967.8;;;18.6;72.7
68873;BME280;55907;50.806;12.882;2023-08-07T12:44:00;968.0;;;18.0;76.2
68873;BME280;55907;50.806;12.882;2023-08-07T12:47:01;967.8;;;17.4;79.3
68873;BME280;55907;50.806;12.882;2023-08-07T12:50:03;968.0;;;17.3;80.4
68873;BME280;55907;50.806;12.882;2023-08-07T12:53:04;968.0;;;17.7;80.5
68873;BME280;55907;50.806;12.882;2023-08-07T12:56:05;968.0;;;18.0;80.0
68873;BME280;55907;50.806;12.882;2023-08-07T12:59:07;968.0;;;18.2;75.5
68873;BME280;55907;50.806;12.882;2023-08-07T13:02:08;968.0;;;18.3;74.6
68873;BME280;55907;50.806;12.882;2023-08-07T13:05:10;968.0;;;18.4;73.4
68873;BME280;55907;50.806;12.882;2023-08-07T13:08:11;968.1;;;18.0;74.5
68873;BME280;55907;50.806;12.882;2023-08-07T13:11:13;968.2;;;17.7;74.6
68873;BME280;55907;50.806;12.882;2023-08-07T13:14:14;968.0;;;17.6;72.6
68873;BME280;55907;50.806;12.882;2023-08-07T13:17:15;968.1;;;18.0;72.3
68873;BME280;55907;50.806;12.882;2023-08-07T13:20:17;968.1;;;18.1;71.6
68873;BME280;55907;50.806;12.882;2023-08-07T13:23:18;968.0;;;18.2;69.1
68873;BME280;55907;50.806;12.882;2023-08-07T13:26:19;968.1;;;18.5;69.7
68873;BME280;55907;50.806;12.882;2023-08-07T13:29:21;968.1;;;18.8;67.3
68873;BME280;55907;50.806;12.882;2023-08-07T13:32:22;968.1;;;19.1;66.6
68873;BME280;55907;50.806;12.882;2023-08-07T13:35:24;968.1;;;19.3;65.1
68873;BME280;55907;50.806;12.882;2023-08-07T13:38:25;968.2;;;19.3;67.1
68873;BME280;55907;50.806;12.882;2023-08-07T13:41:27;968.2;;;18.8;65.1
68873;BME280;55907;50.806;12.882;2023-08-07T13:44:28;968.3;;;18.5;65.9
68873;BME280;55907;50.806;12.882;2023-08-07T13:47:29;968.3;;;18.3;65.8
68873;BME280;55907;50.806;12.882;2023-08-07T13:50:31;968.3;;;18.3;66.6
68873;BME280;55907;50.806;12.882;2023-08-07T13:53:32;968.4;;;18.3;66.6
68873;BME280;55907;50.806;12.882;2023-08-07T13:56:34;968.4;;;18.2;66.5
68873;BME280;55907;50.806;12.882;2023-08-07T13:59:35;968.5;;;18.0;67.4
68873;BME280;55907;50.806;12.882;2023-08-07T14:02:36;968.5;;;17.9;67.5
68873;BME280;55907;50.806;12.882;2023-08-07T14:05:38;968.6;;;17.9;68.6
68873;BME280;55907;50.806;12.882;2023-08-07T14:08:39;968.8;;;17.6;69.6
68873;BME280;55907;50.806;12.882;2023-08-07T14:11:41;969.0;;;17.2;73.5
68873;BME280;55907;50.806;12.882;2023-08-07T14:14:42;969.1;;;17.0;75.1
68873;BME280;55907;50.806;12.882;2023-08-07T14:17:43;969.0;;;17.0;76.7
68873;BME280;55907;50.806;12.882;2023-08-07T14:20:45;969.1;;;17.1;77.9
68873;BME280;55907;50.806;12.882;2023-08-07T14:23:46;969.1;;;17.3;76.4
68873;BME280;55907;50.806;12.882;2023-08-07T14:26:48;969.1;;;17.4;76.6
68873;BME280;55907;50.806;12.882;2023-08-07T14:29:49;969.2;;;17.3;76.8
68873;BME280;55907;50.806;12.882;2023-08-07T14:32:50;969.3;;;17.3;77.4
68873;BME280;55907;50.806;12.882;2023-08-07T14:35:52;969.4;;;17.1;78.2
68873;BME280;55907;50.806;12.882;2023-08-07T14:38:53;969.3;;;16.9;79.5
68873;BME280;55907;50.806;12.882;2023-08-07T14:41:55;969.3;;;16.6;81.0
68873;BME280;55907;50.806;12.882;2023-08-07T14:47:58;969.4;;;16.3;84.2
68873;BME280;55907;50.806;12.882;2023-08-07T14:50:59;969.3;;;16.1;85.2
68873;BME280;55907;50.806;12.882;2023-08-07T14:54:00;969.3;;;15.9;85.9
68873;BME280;55907;50.806;12.882;2023-08-07T14:57:02;969.5;;;15.7;86.8
68873;BME280;55907;50.806;12.882;2023-08-07T15:00:04;969.5;;;15.5;88.6
68873;BME280;55907;50.806;12.882;2023-08-07T15:03:05;969.6;;;15.5;90.6
68873;BME280;55907;50.806;12.882;2023-08-07T15:06:06;969.6;;;15.5;90.4
68873;BME280;55907;50.806;12.882;2023-08-07T15:09:08;969.6;;;15.6;90.4
68873;BME280;55907;50.806;12.882;2023-08-07T15:12:10;969.7;;;15.8;89.0
68873;BME280;55907;50.806;12.882;2023-08-07T15:15:10;969.6;;;15.8;88.0
68873;BME280;55907;50.806;12.882;2023-08-07T15:18:12;969.6;;;16.0;88.2
68873;BME280;55907;50.806;12.882;2023-08-07T15:21:13;969.6;;;16.0;87.7
68873;BME280;55907;50.806;12.882;2023-08-07T15:24:14;969.6;;;16.1;86.7
68873;BME280;55907;50.806;12.882;2023-08-07T15:27:16;969.6;;;16.1;85.4
68873;BME280;55907;50.806;12.882;2023-08-07T15:30:17;969.5;;;16.3;84.2
68873;BME280;55907;50.806;12.882;2023-08-07T15:33:19;969.5;;;16.7;83.1
68873;BME280;55907;50.806;12.882;2023-08-07T15:36:20;969.4;;;16.9;81.8
68873;BME280;55907;50.806;12.882;2023-08-07T15:39:22;969.5;;;17.0;81.6
68873;BME280;55907;50.806;12.882;2023-08-07T15:42:23;969.6;;;16.8;79.4
68873;BME280;55907;50.806;12.882;2023-08-07T15:45:24;970.1;;;16.5;83.7
68873;BME280;55907;50.806;12.882;2023-08-07T15:48:26;970.2;;;16.1;88.1
68873;BME280;55907;50.806;12.882;2023-08-07T15:51:27;970.0;;;15.6;83.9
68873;BME280;55907;50.806;12.882;2023-08-07T15:54:29;970.0;;;15.4;84.7
68873;BME280;55907;50.806;12.882;2023-08-07T15:57:30;970.1;;;15.3;85.5
68873;BME280;55907;50.806;12.882;2023-08-07T16:00:33;970.2;;;15.2;86.3
68873;BME280;55907;50.806;12.882;2023-08-07T16:03:33;970.3;;;15.2;86.4
68873;BME280;55907;50.806;12.882;2023-08-07T16:06:35;970.2;;;15.2;87.4
68873;BME280;55907;50.806;12.882;2023-08-07T16:09:36;970.2;;;15.2;85.9
68873;BME280;55907;50.806;12.882;2023-08-07T16:12:37;970.2;;;15.2;85.9
68873;BME280;55907;50.806;12.882;2023-08-07T16:15:39;970.3;;;15.2;87.2
68873;BME280;55907;50.806;12.882;2023-08-07T16:18:40;970.3;;;15.3;87.5
68873;BME280;55907;50.806;12.882;2023-08-07T16:21:42;970.3;;;15.4;87.9
68873;BME280;55907;50.806;12.882;2023-08-07T16:24:43;970.3;;;15.4;86.8
68873;BME280;55907;50.806;12.882;2023-08-07T16:27:44;970.3;;;15.4;85.6
68873;BME280;55907;50.806;12.882;2023-08-07T16:30:47;970.3;;;15.3;84.8
68873;BME280;55907;50.806;12.882;2023-08-07T16:33:47;970.3;;;15.0;84.1
68873;BME280;55907;50.806;12.882;2023-08-07T16:36:49;970.3;;;15.0;84.2
68873;BME280;55907;50.806;12.882;2023-08-07T16:39:50;970.4;;;15.0;83.4
68873;BME280;55907;50.806;12.882;2023-08-07T16:42:51;970.5;;;14.9;80.7
68873;BME280;55907;50.806;12.882;2023-08-07T16:45:53;970.6;;;15.0;81.6
68873;BME280;55907;50.806;12.882;2023-08-07T16:48:54;970.5;;;14.9;79.7
68873;BME280;55907;50.806;12.882;2023-08-07T16:51:56;970.6;;;15.0;80.3
68873;BME280;55907;50.806;12.882;2023-08-07T16:54:57;970.6;;;15.0;80.0
68873;BME280;55907;50.806;12.882;2023-08-07T16:57:59;970.7;;;15.1;79.1
68873;BME280;55907;50.806;12.882;2023-08-07T17:01:00;970.7;;;15.2;79.0